Time;durP1;ratioP1;P1;durP2;ratioP2;P2;SDS_P1;SDS_P2;PMS_P1;PMS_P2;Temp;Humidity;BMP_temperature;BMP_pressure;BME280_temperature;BME280_humidity;BME280_pressure;Samples;Min_cycle;Max_cycle;Signal;HPM_P1;HPM_P2
2023/05/11 00:00:40;;;;;;;37.33;27.25;;;26.00;99.50;;;;;;5064360;28;20119;-41
2023/05/11 00:03:07;;;;;;;26.70;20.48;;;26.00;99.90;;;;;;5062008;28;20038;-43
2023/05/11 00:05:33;;;;;;;13.40;9.40;;;26.00;99.80;;;;;;5054062;28;20108;-45
2023/05/11 00:08:01;;;;;;;13.75;9.18;;;25.90;99.40;;;;;;5052970;28;20087;-47
2023/05/11 00:10:28;;;;;;;8.93;5.13;;;25.90;99.50;;;;;;5048223;28;20035;-47
2023/05/11 00:12:55;;;;;;;7.22;4.90;;;25.90;99.30;;;;;;5052961;28;20029;-46
2023/05/11 00:15:22;;;;;;;6.93;4.50;;;25.90;99.50;;;;;;5049153;28;20036;-52
2023/05/11 00:17:49;;;;;;;3.65;2.97;;;25.90;99.40;;;;;;5051034;28;20029;-46
2023/05/11 00:20:16;;;;;;;3.85;2.92;;;25.80;99.30;;;;;;5052019;28;20105;-50
2023/05/11 00:22:43;;;;;;;4.53;3.53;;;25.90;99.30;;;;;;5058991;28;20352;-47
2023/05/11 00:25:09;;;;;;;5.63;3.20;;;25.90;99.50;;;;;;5062848;28;20332;-50
2023/05/11 00:27:36;;;;;;;5.82;3.97;;;25.80;99.40;;;;;;5063831;28;20087;-51
2023/05/11 00:30:03;;;;;;;11.27;3.85;;;26.00;99.30;;;;;;5064648;28;20055;-43
2023/05/11 00:32:29;;;;;;;6.35;3.90;;;26.10;99.00;;;;;;5064024;28;20036;-48
2023/05/11 00:34:56;;;;;;;7.13;3.58;;;26.30;98.60;;;;;;5064614;28;20248;-46
2023/05/11 00:37:23;;;;;;;7.07;3.90;;;26.50;98.30;;;;;;5063824;28;20029;-45
2023/05/11 00:39:49;;;;;;;7.22;5.10;;;26.50;97.80;;;;;;5062929;28;20044;-45
2023/05/11 00:42:16;;;;;;;5.43;3.95;;;26.60;97.50;;;;;;5061946;28;20229;-44
2023/05/11 00:44:43;;;;;;;5.57;3.58;;;26.70;97.20;;;;;;5061604;28;20041;-44
2023/05/11 00:47:09;;;;;;;8.70;4.05;;;26.80;97.00;;;;;;5062038;28;20029;-44
2023/05/11 00:49:36;;;;;;;6.22;3.80;;;26.80;96.80;;;;;;5062456;28;20036;-44
2023/05/11 00:52:04;;;;;;;5.65;3.50;;;26.90;96.60;;;;;;5062767;28;20028;-52
2023/05/11 00:54:31;;;;;;;6.88;3.28;;;26.90;96.50;;;;;;5064171;28;20093;-45
2023/05/11 00:56:58;;;;;;;5.90;2.90;;;27.00;96.30;;;;;;5063727;28;20029;-45
2023/05/11 00:59:24;;;;;;;4.60;2.55;;;27.00;96.30;;;;;;5063985;28;20031;-44
2023/05/11 01:01:51;;;;;;;3.80;2.53;;;27.00;96.00;;;;;;5063723;28;20037;-45
2023/05/11 01:04:18;;;;;;;5.30;2.55;;;27.10;96.00;;;;;;5063940;28;20029;-49
2023/05/11 01:06:55;;;;;;;4.65;2.58;;;27.10;96.10;;;;;;5063420;28;20025;-45
2023/05/11 01:09:43;;;;;;;3.88;2.85;;;27.10;95.70;;;;;;5063519;28;20074;-46
2023/05/11 01:12:26;;;;;;;3.28;2.20;;;27.20;95.70;;;;;;5063708;28;20097;-43
2023/05/11 01:15:13;;;;;;;5.63;2.47;;;27.10;95.60;;;;;;5063969;28;20033;-53
2023/05/11 01:17:52;;;;;;;5.03;2.15;;;27.10;95.50;;;;;;5063508;28;20032;-45
2023/05/11 01:20:26;;;;;;;3.55;2.25;;;27.20;95.50;;;;;;5063338;28;20328;-57
2023/05/11 01:22:55;;;;;;;4.20;2.28;;;27.20;95.40;;;;;;5063454;28;20025;-47
2023/05/11 01:25:42;;;;;;;4.50;2.30;;;27.20;95.40;;;;;;5063469;28;20036;-53
2023/05/11 01:28:47;;;;;;;4.05;2.25;;;27.20;95.40;;;;;;5063486;28;20025;-45
2023/05/11 01:31:17;;;;;;;3.58;2.55;;;27.20;95.30;;;;;;5063484;28;20037;-50
2023/05/11 01:33:56;;;;;;;8.55;2.13;;;26.80;95.70;;;;;;5063455;28;20346;-43
2023/05/11 01:36:31;;;;;;;5.28;1.40;;;26.60;96.50;;;;;;5062466;28;20040;-43
2023/05/11 01:39:07;;;;;;;1.90;1.10;;;26.30;96.90;;;;;;5063426;28;20025;-47
2023/05/11 01:41:37;;;;;;;3.95;1.00;;;26.30;97.40;;;;;;5063432;28;20032;-41
2023/05/11 01:44:07;;;;;;;3.38;1.05;;;26.10;97.80;;;;;;5063159;28;20048;-41
2023/05/11 01:46:34;;;;;;;2.33;0.80;;;26.00;97.90;;;;;;5063168;28;20067;-44
2023/05/11 01:49:05;;;;;;;6.10;1.20;;;26.00;98.20;;;;;;5063712;28;20037;-41
2023/05/11 01:51:37;;;;;;;4.47;1.17;;;25.90;98.50;;;;;;5063019;28;20045;-41
2023/05/11 01:54:07;;;;;;;5.00;1.77;;;25.90;98.50;;;;;;5063324;28;20300;-43
2023/05/11 01:56:36;;;;;;;2.22;1.20;;;25.90;98.70;;;;;;5063207;28;20171;-41
2023/05/11 01:59:03;;;;;;;3.95;1.17;;;25.80;98.90;;;;;;5058621;28;20321;-40
2023/05/11 02:01:34;;;;;;;6.05;1.50;;;25.80;99.30;;;;;;5051801;28;20214;-40
2023/05/11 02:04:03;;;;;;;4.20;1.30;;;25.80;99.50;;;;;;5043285;28;20251;-47
2023/05/11 02:06:31;;;;;;;9.20;3.35;;;25.80;99.70;;;;;;5042746;28;20033;-48
2023/05/11 02:09:00;;;;;;;8.38;4.82;;;25.80;99.70;;;;;;5045127;28;20095;-42
2023/05/11 02:11:28;;;;;;;9.55;3.50;;;25.80;99.60;;;;;;5046664;28;20017;-43
2023/05/11 02:13:57;;;;;;;6.30;3.70;;;25.70;99.70;;;;;;5046876;28;20033;-44
2023/05/11 02:16:26;;;;;;;6.82;2.70;;;25.70;99.90;;;;;;5046506;28;20037;-41
2023/05/11 02:18:54;;;;;;;5.40;1.85;;;25.60;99.70;;;;;;5046776;28;20032;-44
2023/05/11 02:21:22;;;;;;;9.00;4.03;;;25.60;99.70;;;;;;5046114;28;20420;-53
2023/05/11 02:23:51;;;;;;;7.03;4.88;;;25.60;99.60;;;;;;5046582;28;20076;-43
2023/05/11 02:26:18;;;;;;;13.32;9.40;;;25.60;99.80;;;;;;5045326;28;20105;-45
2023/05/11 02:28:45;;;;;;;6.93;5.90;;;25.60;99.70;;;;;;5046795;28;20021;-45
2023/05/11 02:31:23;;;;;;;6.03;5.20;;;25.50;99.60;;;;;;5053906;28;20322;-53
2023/05/11 02:33:51;;;;;;;10.13;5.35;;;25.70;99.70;;;;;;5057071;28;20288;-51
2023/05/11 02:36:21;;;;;;;13.10;4.63;;;25.80;99.40;;;;;;5057767;28;20092;-56
2023/05/11 02:38:50;;;;;;;9.18;4.13;;;26.00;99.20;;;;;;5052560;28;20048;-56
2023/05/11 02:41:24;;;;;;;7.13;3.17;;;26.00;98.80;;;;;;5046138;28;20072;-54
2023/05/11 02:43:53;;;;;;;7.55;3.30;;;26.10;98.60;;;;;;5048211;28;20226;-55
2023/05/11 02:46:28;;;;;;;7.75;2.70;;;26.10;98.30;;;;;;5053024;28;20075;-55
2023/05/11 02:48:59;;;;;;;5.90;2.40;;;26.20;98.10;;;;;;5049029;28;20036;-57
2023/05/11 02:51:37;;;;;;;5.50;1.80;;;26.30;98.00;;;;;;5045830;28;20017;-56
2023/05/11 02:54:06;;;;;;;6.00;1.73;;;26.30;97.90;;;;;;5045611;28;20249;-56
2023/05/11 02:56:34;;;;;;;2.92;1.30;;;26.30;97.80;;;;;;5048330;28;20041;-56
2023/05/11 02:59:01;;;;;;;5.72;1.48;;;26.40;97.80;;;;;;5059619;28;20029;-57
2023/05/11 03:01:29;;;;;;;5.80;1.50;;;26.40;97.70;;;;;;5048310;28;20033;-57
2023/05/11 03:03:56;;;;;;;4.00;1.10;;;26.40;97.60;;;;;;5045752;28;20347;-53
2023/05/11 03:06:22;;;;;;;5.35;1.75;;;26.40;97.60;;;;;;5060463;28;20060;-56
2023/05/11 03:08:49;;;;;;;6.35;1.17;;;26.40;97.50;;;;;;5065593;28;20032;-58
2023/05/11 03:11:17;;;;;;;3.53;1.33;;;26.40;97.40;;;;;;5065586;28;20029;-60
2023/05/11 03:13:44;;;;;;;10.60;1.80;;;26.40;97.30;;;;;;5065710;28;20179;-60
2023/05/11 03:16:12;;;;;;;4.00;1.30;;;26.50;97.40;;;;;;5065283;28;20025;-59
2023/05/11 03:18:40;;;;;;;6.13;1.38;;;26.50;97.30;;;;;;5065472;28;20105;-59
2023/05/11 03:21:07;;;;;;;6.50;1.35;;;26.50;97.30;;;;;;5065037;28;20025;-60
2023/05/11 03:23:35;;;;;;;5.47;1.13;;;26.50;97.10;;;;;;5065259;28;20367;-56
2023/05/11 03:26:05;;;;;;;6.55;1.05;;;26.50;97.10;;;;;;5065475;28;20036;-60
2023/05/11 03:28:33;;;;;;;4.53;1.20;;;26.50;97.00;;;;;;5065344;28;20313;-57
2023/05/11 03:30:59;;;;;;;4.05;1.40;;;26.50;96.90;;;;;;5064910;28;20063;-58
2023/05/11 03:33:26;;;;;;;6.32;1.13;;;26.50;97.00;;;;;;5064708;28;20091;-56
2023/05/11 03:35:54;;;;;;;3.63;1.25;;;26.50;96.90;;;;;;5065043;28;20063;-56
2023/05/11 03:38:23;;;;;;;4.43;1.30;;;26.50;97.00;;;;;;5064841;28;20039;-52
2023/05/11 03:40:52;;;;;;;4.82;1.00;;;26.50;96.90;;;;;;5065361;28;20024;-55
2023/05/11 03:43:21;;;;;;;9.88;1.48;;;26.50;96.80;;;;;;5064857;28;20039;-57
2023/05/11 03:45:51;;;;;;;7.78;1.40;;;26.50;96.90;;;;;;5063727;28;20028;-49
2023/05/11 03:48:19;;;;;;;8.52;1.42;;;26.40;96.50;;;;;;5050362;28;20029;-55
2023/05/11 03:50:48;;;;;;;3.83;1.30;;;26.40;96.50;;;;;;5044665;28;20032;-53
2023/05/11 03:53:16;;;;;;;4.30;1.27;;;26.40;96.50;;;;;;5046477;28;20071;-57
2023/05/11 03:55:42;;;;;;;5.80;1.30;;;26.40;96.60;;;;;;5064254;28;20104;-53
2023/05/11 03:58:09;;;;;;;7.63;1.60;;;26.40;96.70;;;;;;5064585;28;20071;-52
2023/05/11 04:00:40;;;;;;;4.13;1.40;;;26.30;96.60;;;;;;5064569;28;20060;-58
2023/05/11 04:03:08;;;;;;;4.95;1.25;;;26.30;96.70;;;;;;5064595;28;20025;-57
2023/05/11 04:05:35;;;;;;;6.55;1.40;;;26.30;96.70;;;;;;5052808;28;20065;-58
2023/05/11 04:08:03;;;;;;;5.40;1.20;;;26.30;96.50;;;;;;5044540;28;20321;-56
2023/05/11 04:10:31;;;;;;;7.03;1.20;;;26.30;96.50;;;;;;5044483;28;20067;-60
2023/05/11 04:12:58;;;;;;;5.32;1.10;;;26.30;96.30;;;;;;5044330;28;20040;-55
2023/05/11 04:15:25;;;;;;;4.50;1.00;;;26.30;96.00;;;;;;5044369;28;20030;-56
2023/05/11 04:17:52;;;;;;;5.72;0.80;;;26.30;96.00;;;;;;5044223;28;20033;-58
2023/05/11 04:20:18;;;;;;;2.95;0.80;;;26.30;95.70;;;;;;5044061;28;20191;-55
2023/05/11 04:22:45;;;;;;;9.57;1.42;;;26.30;95.60;;;;;;5044138;28;20060;-52
2023/05/11 04:25:12;;;;;;;8.50;1.13;;;26.30;95.50;;;;;;5044127;28;20037;-59
2023/05/11 04:27:39;;;;;;;3.28;1.00;;;26.30;95.40;;;;;;5044024;28;20067;-58
2023/05/11 04:30:08;;;;;;;5.70;1.08;;;26.30;95.20;;;;;;5044640;28;20229;-58
2023/05/11 04:32:34;;;;;;;4.95;1.00;;;26.30;95.20;;;;;;5043593;28;20029;-54
2023/05/11 04:35:01;;;;;;;3.17;0.80;;;26.30;95.10;;;;;;5044422;28;20213;-52
2023/05/11 04:37:28;;;;;;;4.88;0.73;;;26.20;95.00;;;;;;5044149;28;20029;-63
2023/05/11 04:39:55;;;;;;;2.05;0.98;;;26.20;95.10;;;;;;5044430;28;20040;-54
2023/05/11 04:42:22;;;;;;;7.20;1.02;;;26.20;95.00;;;;;;5043850;28;20060;-56
2023/05/11 04:44:53;;;;;;;7.28;1.23;;;26.30;95.10;;;;;;5043747;28;20132;-56
2023/05/11 04:47:20;;;;;;;3.72;0.80;;;26.30;95.10;;;;;;5043983;28;20032;-56
2023/05/11 04:49:46;;;;;;;6.18;1.10;;;26.30;95.00;;;;;;5044160;28;20033;-55
2023/05/11 04:52:13;;;;;;;5.05;0.90;;;26.30;95.10;;;;;;5044000;28;20359;-59
2023/05/11 04:54:40;;;;;;;2.50;0.80;;;26.30;95.20;;;;;;5044243;28;20030;-60
2023/05/11 04:57:06;;;;;;;4.25;0.70;;;26.20;95.00;;;;;;5043972;28;20044;-57
2023/05/11 04:59:33;;;;;;;4.97;0.95;;;26.20;95.10;;;;;;5044179;28;20025;-51
2023/05/11 05:02:00;;;;;;;4.13;0.90;;;26.20;95.20;;;;;;5043953;28;20072;-51
2023/05/11 05:04:26;;;;;;;4.75;0.93;;;26.30;95.30;;;;;;5043914;28;20030;-53
2023/05/11 05:06:53;;;;;;;5.22;0.70;;;26.20;95.30;;;;;;5043744;28;20301;-60
2023/05/11 05:09:20;;;;;;;4.53;0.93;;;26.30;95.30;;;;;;5044165;28;20029;-57
2023/05/11 05:11:47;;;;;;;5.47;1.02;;;26.30;95.30;;;;;;5043704;28;20226;-56
2023/05/11 05:14:14;;;;;;;3.00;0.90;;;26.30;95.20;;;;;;5042741;28;20041;-60
2023/05/11 05:16:40;;;;;;;4.80;1.00;;;26.30;95.20;;;;;;5043908;28;20037;-59
2023/05/11 05:19:08;;;;;;;5.45;1.00;;;26.30;95.10;;;;;;5043960;28;20037;-56
2023/05/11 05:21:35;;;;;;;5.32;1.10;;;26.30;95.20;;;;;;5043773;28;20048;-59
2023/05/11 05:24:05;;;;;;;1.48;0.60;;;26.30;95.30;;;;;;5043543;28;20037;-59
2023/05/11 05:26:32;;;;;;;2.53;0.90;;;26.30;95.30;;;;;;5043458;28;20379;-60
2023/05/11 05:28:58;;;;;;;8.02;1.02;;;26.30;95.20;;;;;;5043855;28;20067;-60
2023/05/11 05:31:25;;;;;;;4.38;0.80;;;26.30;95.30;;;;;;5043424;28;20013;-52
2023/05/11 05:33:52;;;;;;;6.95;1.00;;;26.30;95.30;;;;;;5043698;28;20037;-57
2023/05/11 05:36:18;;;;;;;5.63;1.20;;;26.20;95.40;;;;;;5043376;28;20028;-60
2023/05/11 05:38:45;;;;;;;6.07;1.00;;;26.20;95.40;;;;;;5043623;28;20301;-56
2023/05/11 05:41:11;;;;;;;5.68;1.00;;;26.30;95.40;;;;;;5043708;28;20033;-60
2023/05/11 05:43:38;;;;;;;5.53;0.90;;;26.20;95.50;;;;;;5044671;28;20104;-57
2023/05/11 05:46:05;;;;;;;2.85;0.70;;;26.20;95.40;;;;;;5047251;28;20021;-51
2023/05/11 05:48:31;;;;;;;6.00;0.90;;;26.20;95.50;;;;;;5047240;28;20036;-56
2023/05/11 05:50:59;;;;;;;6.00;1.35;;;26.10;95.40;;;;;;5046957;28;20092;-58
2023/05/11 05:53:25;;;;;;;6.50;1.10;;;26.20;95.50;;;;;;5047144;28;20049;-55
2023/05/11 05:55:52;;;;;;;5.13;0.98;;;26.10;95.40;;;;;;5047273;28;20049;-59
2023/05/11 05:58:18;;;;;;;5.78;0.90;;;26.10;95.50;;;;;;5046915;28;20245;-54
2023/05/11 06:00:45;;;;;;;2.38;0.70;;;26.10;95.60;;;;;;5054868;28;20084;-62
2023/05/11 06:03:12;;;;;;;4.55;1.13;;;26.10;95.60;;;;;;5066968;28;20037;-59
2023/05/11 06:05:38;;;;;;;6.03;1.55;;;26.10;95.80;;;;;;5066927;28;20036;-51
2023/05/11 06:08:05;;;;;;;7.07;1.13;;;26.10;95.60;;;;;;5066696;28;20037;-56
2023/05/11 06:10:32;;;;;;;7.20;1.27;;;26.10;95.70;;;;;;5066651;28;20056;-52
2023/05/11 06:12:58;;;;;;;8.60;1.33;;;26.10;95.80;;;;;;5066474;28;20273;-54
2023/05/11 06:15:25;;;;;;;3.05;0.90;;;26.00;95.80;;;;;;5066585;28;20025;-57
2023/05/11 06:17:52;;;;;;;6.50;1.00;;;26.10;96.00;;;;;;5066403;28;20035;-53
2023/05/11 06:20:18;;;;;;;4.28;0.95;;;26.10;96.00;;;;;;5066549;28;20043;-58
2023/05/11 06:22:45;;;;;;;5.90;1.05;;;26.10;95.90;;;;;;5066547;28;20213;-60
2023/05/11 06:25:11;;;;;;;4.22;0.70;;;26.10;95.80;;;;;;5066479;28;20051;-62
2023/05/11 06:27:38;;;;;;;5.93;1.00;;;26.10;95.90;;;;;;5066309;28;20062;-58
2023/05/11 06:30:06;;;;;;;4.72;1.10;;;26.00;95.70;;;;;;5066820;28;20025;-56
2023/05/11 06:32:33;;;;;;;6.97;0.88;;;26.00;95.80;;;;;;5066487;28;20127;-59
2023/05/11 06:35:00;;;;;;;4.97;0.68;;;26.00;95.80;;;;;;5066634;28;20260;-54
2023/05/11 06:37:29;;;;;;;6.03;0.98;;;26.00;95.90;;;;;;5066165;28;20025;-54
2023/05/11 06:39:55;;;;;;;5.15;1.10;;;26.00;95.90;;;;;;5066633;28;20124;-56
2023/05/11 06:42:22;;;;;;;4.50;0.90;;;26.00;95.80;;;;;;5066054;28;20040;-58
2023/05/11 06:44:49;;;;;;;5.07;0.75;;;26.00;95.80;;;;;;5065857;28;20053;-54
2023/05/11 06:47:16;;;;;;;6.38;1.23;;;26.00;95.70;;;;;;5065984;28;20025;-59
2023/05/11 06:49:42;;;;;;;7.60;0.90;;;26.00;95.70;;;;;;5066248;28;20025;-56
2023/05/11 06:52:09;;;;;;;5.20;0.80;;;26.00;95.90;;;;;;5065925;28;20309;-61
2023/05/11 06:54:36;;;;;;;4.55;0.90;;;25.90;95.90;;;;;;5065335;28;20237;-58
2023/05/11 06:57:02;;;;;;;6.18;1.10;;;25.90;95.90;;;;;;5065727;28;20315;-60
2023/05/11 06:59:29;;;;;;;8.93;1.30;;;25.90;95.90;;;;;;5066183;28;20093;-61
2023/05/11 07:01:56;;;;;;;8.93;1.13;;;25.90;96.00;;;;;;5065700;28;20256;-59
2023/05/11 07:04:23;;;;;;;6.93;0.90;;;26.00;96.00;;;;;;5065935;28;20063;-54
2023/05/11 07:06:49;;;;;;;11.63;1.38;;;26.00;96.00;;;;;;5065565;28;20021;-59
2023/05/11 07:09:16;;;;;;;7.13;1.20;;;26.00;96.00;;;;;;5065885;28;20056;-61
2023/05/11 07:11:42;;;;;;;3.88;0.75;;;26.00;96.00;;;;;;5065614;28;20017;-60
2023/05/11 07:14:09;;;;;;;11.20;1.33;;;26.00;95.90;;;;;;5065639;28;20328;-59
2023/05/11 07:16:39;;;;;;;8.38;1.05;;;26.00;96.00;;;;;;5065478;28;20033;-58
2023/05/11 07:19:09;;;;;;;8.77;1.17;;;26.00;96.10;;;;;;5065627;28;20040;-59
2023/05/11 07:21:36;;;;;;;5.97;1.20;;;26.00;96.00;;;;;;5064254;28;20189;-53
2023/05/11 07:24:03;;;;;;;9.55;1.23;;;25.90;96.10;;;;;;5065487;28;20032;-57
2023/05/11 07:26:30;;;;;;;7.25;0.88;;;25.90;96.10;;;;;;5065339;28;20021;-54
2023/05/11 07:28:56;;;;;;;9.48;1.30;;;25.90;96.10;;;;;;5065538;28;20332;-60
2023/05/11 07:31:23;;;;;;;8.18;1.38;;;25.90;96.20;;;;;;5065224;28;20296;-58
2023/05/11 07:33:49;;;;;;;6.20;1.00;;;25.80;96.20;;;;;;5065430;28;20090;-60
2023/05/11 07:36:17;;;;;;;8.80;1.30;;;25.80;96.20;;;;;;5065001;28;20024;-60
2023/05/11 07:38:44;;;;;;;5.97;1.17;;;25.80;96.30;;;;;;5065411;28;20091;-55
2023/05/11 07:41:11;;;;;;;6.68;1.42;;;25.80;96.40;;;;;;5064982;28;20028;-49
2023/05/11 07:43:38;;;;;;;7.20;1.13;;;25.80;96.40;;;;;;5064777;28;20241;-52
2023/05/11 07:46:06;;;;;;;9.30;1.42;;;25.80;96.40;;;;;;5064825;28;20029;-55
2023/05/11 07:48:32;;;;;;;6.40;1.33;;;25.80;96.20;;;;;;5064953;28;20024;-51
2023/05/11 07:51:00;;;;;;;5.28;1.00;;;25.80;96.20;;;;;;5064744;28;20025;-52
2023/05/11 07:53:27;;;;;;;7.63;1.05;;;25.80;96.30;;;;;;5064819;28;20029;-54
2023/05/11 07:55:53;;;;;;;6.70;1.20;;;25.80;96.20;;;;;;5064777;28;20066;-50
2023/05/11 07:58:20;;;;;;;6.28;1.25;;;25.80;96.20;;;;;;5064670;28;20325;-49
2023/05/11 08:00:47;;;;;;;8.80;1.23;;;25.80;96.20;;;;;;5064605;28;20043;-56
2023/05/11 08:03:14;;;;;;;5.28;1.35;;;25.90;96.30;;;;;;5064647;28;20240;-52
2023/05/11 08:05:41;;;;;;;5.47;1.30;;;25.90;96.30;;;;;;5063578;28;20309;-57
2023/05/11 08:08:07;;;;;;;4.00;1.20;;;25.80;96.30;;;;;;5064530;28;20043;-59
2023/05/11 08:10:35;;;;;;;4.25;1.00;;;25.80;96.20;;;;;;5064454;28;20017;-60
2023/05/11 08:13:02;;;;;;;5.78;1.00;;;25.90;96.30;;;;;;5064330;28;20108;-60
2023/05/11 08:15:29;;;;;;;5.57;1.10;;;25.90;96.20;;;;;;5064311;28;20037;-60
2023/05/11 08:17:56;;;;;;;4.75;1.23;;;25.90;96.10;;;;;;5064345;28;20024;-59
2023/05/11 08:20:22;;;;;;;5.63;1.23;;;25.90;96.10;;;;;;5064201;28;20287;-59
2023/05/11 08:22:49;;;;;;;10.90;1.45;;;25.90;96.00;;;;;;5064162;28;20202;-59
2023/05/11 08:25:16;;;;;;;8.43;1.38;;;25.90;96.00;;;;;;5064180;28;20252;-53
2023/05/11 08:27:42;;;;;;;7.10;1.10;;;25.90;96.10;;;;;;5064029;28;20264;-57
2023/05/11 08:30:10;;;;;;;3.95;1.25;;;25.90;96.20;;;;;;5064077;28;20321;-57
2023/05/11 08:32:38;;;;;;;7.07;1.10;;;25.90;96.10;;;;;;5064044;28;20317;-59
2023/05/11 08:35:05;;;;;;;6.72;1.40;;;25.90;96.20;;;;;;5064421;28;20060;-57
2023/05/11 08:37:32;;;;;;;13.82;1.30;;;25.90;96.20;;;;;;5063977;28;20025;-57
2023/05/11 08:39:58;;;;;;;6.10;1.40;;;25.90;96.30;;;;;;5063899;28;20017;-56
2023/05/11 08:42:28;;;;;;;4.15;1.05;;;25.90;96.40;;;;;;5063897;28;20029;-56
2023/05/11 08:44:56;;;;;;;9.25;1.33;;;25.80;96.50;;;;;;5063750;28;20064;-59
2023/05/11 08:47:24;;;;;;;3.75;1.05;;;25.80;96.60;;;;;;5063860;28;20020;-59
2023/05/11 08:49:52;;;;;;;6.95;1.35;;;25.80;96.60;;;;;;5064206;28;20204;-57
2023/05/11 08:52:19;;;;;;;9.32;1.20;;;25.80;96.70;;;;;;5063790;28;20039;-56
2023/05/11 08:54:46;;;;;;;5.57;1.00;;;25.80;96.60;;;;;;5064302;28;20083;-58
2023/05/11 08:57:13;;;;;;;6.78;0.98;;;25.80;96.50;;;;;;5063647;28;20143;-63
2023/05/11 08:59:45;;;;;;;6.50;1.13;;;25.70;96.50;;;;;;5064127;28;20308;-56
2023/05/11 09:02:21;;;;;;;6.60;0.90;;;25.70;96.60;;;;;;5063960;28;20033;-60
2023/05/11 09:04:48;;;;;;;4.68;0.93;;;25.70;96.70;;;;;;5064096;28;20048;-56
2023/05/11 09:07:16;;;;;;;6.82;1.13;;;25.80;96.80;;;;;;5063683;28;20032;-52
2023/05/11 09:09:44;;;;;;;7.20;0.88;;;25.80;96.70;;;;;;5063906;28;20197;-59
2023/05/11 09:12:12;;;;;;;6.90;0.85;;;25.70;96.70;;;;;;5063630;28;20035;-58
2023/05/11 09:14:38;;;;;;;7.20;1.10;;;25.80;96.70;;;;;;5063946;28;20037;-56
2023/05/11 09:17:05;;;;;;;4.80;1.10;;;25.80;96.60;;;;;;5064120;28;20025;-56
2023/05/11 09:19:32;;;;;;;7.88;1.20;;;25.80;96.70;;;;;;5068069;28;20200;-56
2023/05/11 09:21:59;;;;;;;7.80;1.42;;;25.80;96.80;;;;;;5067916;28;20040;-58
2023/05/11 09:24:26;;;;;;;5.90;0.88;;;25.70;96.90;;;;;;5067310;28;20036;-60
2023/05/11 09:27:09;;;;;;;5.93;1.08;;;25.80;96.90;;;;;;5067524;28;20017;-54
2023/05/11 09:29:35;;;;;;;7.50;1.00;;;25.80;96.80;;;;;;5067873;28;20036;-54
2023/05/11 09:32:02;;;;;;;6.75;1.27;;;25.70;96.90;;;;;;5067281;28;20308;-56
2023/05/11 09:34:29;;;;;;;9.80;1.00;;;25.70;96.80;;;;;;5067731;28;20040;-55
2023/05/11 09:36:56;;;;;;;6.05;0.95;;;25.70;96.80;;;;;;5067447;28;20063;-58
2023/05/11 09:39:33;;;;;;;6.10;1.08;;;25.70;96.70;;;;;;5067576;28;20340;-56
2023/05/11 09:42:17;;;;;;;5.00;0.70;;;25.70;96.60;;;;;;5067517;28;20044;-59
2023/05/11 09:44:44;;;;;;;4.13;0.80;;;25.70;96.70;;;;;;5066969;28;20117;-54
2023/05/11 09:47:21;;;;;;;8.10;0.85;;;25.60;96.60;;;;;;5067129;28;20033;-53
2023/05/11 09:49:47;;;;;;;4.85;1.00;;;25.60;96.60;;;;;;5067421;28;20355;-54
2023/05/11 09:52:19;;;;;;;7.68;1.20;;;25.60;96.40;;;;;;5067153;28;20045;-54
2023/05/11 09:54:52;;;;;;;4.88;0.90;;;25.60;96.30;;;;;;5067433;28;20033;-53
2023/05/11 09:57:37;;;;;;;3.88;0.98;;;25.60;96.20;;;;;;5066897;28;20055;-51
2023/05/11 10:00:13;;;;;;;2.70;0.98;;;25.50;96.00;;;;;;5067393;28;20028;-58
2023/05/11 10:02:40;;;;;;;8.60;0.93;;;25.50;96.10;;;;;;5066846;28;20029;-57
2023/05/11 10:05:13;;;;;;;7.60;1.00;;;25.50;96.20;;;;;;5066910;28;20100;-55
2023/05/11 10:07:39;;;;;;;8.02;1.10;;;25.50;95.90;;;;;;5066657;28;20048;-57
2023/05/11 10:10:10;;;;;;;4.07;0.88;;;25.50;95.90;;;;;;5066699;28;20036;-60
2023/05/11 10:12:39;;;;;;;6.93;1.20;;;25.50;95.80;;;;;;5066656;28;20029;-60
2023/05/11 10:15:08;;;;;;;5.63;1.15;;;25.50;95.70;;;;;;5066947;28;20056;-55
2023/05/11 10:17:35;;;;;;;5.70;1.10;;;25.40;95.60;;;;;;5066665;28;20020;-58
2023/05/11 10:20:04;;;;;;;8.93;1.17;;;25.50;95.60;;;;;;5067007;28;20313;-59
2023/05/11 10:22:32;;;;;;;12.85;1.38;;;25.50;95.70;;;;;;5066365;28;20044;-59
2023/05/11 10:24:59;;;;;;;12.00;1.52;;;25.50;95.60;;;;;;5066810;28;20052;-55
2023/05/11 10:27:26;;;;;;;10.40;1.17;;;25.50;95.70;;;;;;5066692;28;20025;-59
2023/05/11 10:29:53;;;;;;;6.57;1.60;;;25.50;95.70;;;;;;5065794;28;20032;-58
2023/05/11 10:32:20;;;;;;;6.80;1.30;;;25.40;95.60;;;;;;5066353;28;20049;-59
2023/05/11 10:34:49;;;;;;;9.13;1.77;;;25.40;95.70;;;;;;5066644;28;20029;-60
2023/05/11 10:37:16;;;;;;;5.95;1.20;;;25.50;95.60;;;;;;5066311;28;20024;-61
2023/05/11 10:39:45;;;;;;;9.57;1.30;;;25.50;95.60;;;;;;5066589;28;20104;-58
2023/05/11 10:42:17;;;;;;;8.80;1.60;;;25.60;95.70;;;;;;5066123;28;20025;-54
2023/05/11 10:45:00;;;;;;;7.15;1.80;;;25.60;95.70;;;;;;5065947;28;20052;-53
2023/05/11 10:47:36;;;;;;;6.90;2.00;;;25.60;95.60;;;;;;5065923;28;20048;-55
2023/05/11 10:50:43;;;;;;;14.75;3.10;;;25.60;95.60;;;;;;5066418;28;20092;-52
2023/05/11 10:53:31;;;;;;;10.85;3.17;;;25.60;95.60;;;;;;5065571;28;20091;-53
2023/05/11 10:56:01;;;;;;;10.07;2.90;;;25.60;95.70;;;;;;5065846;28;20031;-57
2023/05/11 10:58:56;;;;;;;9.82;3.85;;;25.60;95.70;;;;;;5065921;28;20029;-54
2023/05/11 11:01:42;;;;;;;11.52;3.45;;;25.60;95.70;;;;;;5065814;28;20301;-54
2023/05/11 11:04:13;;;;;;;7.47;3.10;;;25.60;95.60;;;;;;5065825;28;20029;-56
2023/05/11 11:06:41;;;;;;;10.30;3.35;;;25.60;95.50;;;;;;5065616;28;20060;-54
2023/05/11 11:09:14;;;;;;;9.80;3.72;;;25.60;95.40;;;;;;5065894;28;20351;-56
2023/05/11 11:11:50;;;;;;;7.13;3.10;;;25.70;95.40;;;;;;5065663;28;20021;-59
2023/05/11 11:14:18;;;;;;;7.72;3.65;;;25.70;95.40;;;;;;5065758;28;20044;-56
2023/05/11 11:17:15;;;;;;;9.00;3.83;;;25.70;95.30;;;;;;5065492;28;20211;-58
2023/05/11 11:19:42;;;;;;;7.38;3.60;;;25.70;95.40;;;;;;5065944;28;20032;-60
2023/05/11 11:22:35;;;;;;;6.80;3.38;;;25.70;95.40;;;;;;5065356;28;20024;-59
2023/05/11 11:25:12;;;;;;;9.23;3.00;;;25.70;95.40;;;;;;5064741;28;20055;-61
2023/05/11 11:27:45;;;;;;;7.30;3.00;;;25.80;95.50;;;;;;5065114;28;20020;-50
2023/05/11 11:30:27;;;;;;;9.40;2.90;;;25.60;96.00;;;;;;5065247;28;20033;-45
2023/05/11 11:32:54;;;;;;;;;;;25.50;96.40;;;;;;5066066;28;20029;-45
2023/05/11 11:35:42;;;;;;;14.45;4.40;;;25.50;96.30;;;;;;5065466;28;19944;-45
2023/05/11 11:38:14;;;;;;;11.98;4.47;;;25.60;96.10;;;;;;5064918;28;20333;-50
2023/05/11 11:40:46;;;;;;;7.00;3.15;;;25.60;96.10;;;;;;5064827;28;20039;-45
2023/05/11 11:43:19;;;;;;;7.32;3.63;;;25.60;96.00;;;;;;5064852;28;20331;-48
2023/05/11 11:46:06;;;;;;;8.02;3.30;;;25.60;95.90;;;;;;5063595;28;20349;-45
2023/05/11 11:48:39;;;;;;;9.90;3.05;;;25.70;96.00;;;;;;5060168;28;20210;-48
2023/05/11 11:51:13;;;;;;;7.60;2.92;;;25.70;95.90;;;;;;5063103;28;20468;-44
2023/05/11 11:53:39;;;;;;;5.43;3.17;;;25.80;95.80;;;;;;5044141;28;20040;-51
2023/05/11 11:56:15;;;;;;;10.57;2.97;;;25.80;95.80;;;;;;5062894;28;20033;-50
2023/05/11 11:58:43;;;;;;;8.93;3.15;;;25.90;95.80;;;;;;5063212;28;20032;-53
2023/05/11 12:01:12;;;;;;;7.57;2.75;;;25.90;95.80;;;;;;5064339;28;20043;-53
2023/05/11 12:03:40;;;;;;;6.35;2.67;;;25.90;95.70;;;;;;5064858;28;20043;-56
2023/05/11 12:06:09;;;;;;;7.50;2.38;;;25.90;95.70;;;;;;5064630;28;20036;-51
2023/05/11 12:08:37;;;;;;;8.38;2.97;;;25.90;95.70;;;;;;5064618;28;20041;-47
2023/05/11 12:11:06;;;;;;;9.13;2.63;;;26.00;95.70;;;;;;5064487;28;20099;-49
2023/05/11 12:13:33;;;;;;;6.60;2.55;;;26.00;95.70;;;;;;5064526;28;20036;-45
2023/05/11 12:16:15;;;;;;;9.15;2.90;;;26.00;95.60;;;;;;5064269;28;20127;-53
2023/05/11 12:18:50;;;;;;;6.18;2.13;;;26.00;95.40;;;;;;5064435;28;20033;-48
2023/05/11 12:21:24;;;;;;;6.10;2.42;;;26.00;95.40;;;;;;5064100;28;20118;-53
2023/05/11 12:23:59;;;;;;;9.02;2.40;;;26.00;95.40;;;;;;5064383;28;20086;-46
2023/05/11 12:26:27;;;;;;;7.55;2.53;;;26.10;95.30;;;;;;5064118;28;20025;-51
2023/05/11 12:29:12;;;;;;;5.60;2.17;;;26.10;95.30;;;;;;5064341;28;20072;-51
2023/05/11 12:31:43;;;;;;;6.15;2.30;;;26.10;95.20;;;;;;5064034;28;20309;-45
2023/05/11 12:34:20;;;;;;;6.80;2.08;;;26.20;95.30;;;;;;5064459;28;20300;-44
2023/05/11 12:36:48;;;;;;;7.68;2.40;;;26.20;95.20;;;;;;5063935;28;20021;-46
2023/05/11 12:39:17;;;;;;;6.07;2.17;;;26.20;95.20;;;;;;5063818;28;20348;-47
2023/05/11 12:41:46;;;;;;;3.95;2.00;;;26.30;95.30;;;;;;5063949;28;20246;-44
2023/05/11 12:44:15;;;;;;;5.13;2.20;;;26.30;95.30;;;;;;5063813;28;20056;-43
2023/05/11 12:46:43;;;;;;;4.68;2.30;;;26.30;95.30;;;;;;5063749;28;20033;-49
2023/05/11 12:49:12;;;;;;;8.13;2.20;;;26.30;95.30;;;;;;5064169;28;20021;-46
2023/05/11 12:51:48;;;;;;;6.75;2.40;;;26.40;95.50;;;;;;5063464;28;20317;-45
2023/05/11 12:54:39;;;;;;;5.05;2.10;;;26.30;95.50;;;;;;5064159;28;20024;-52
2023/05/11 12:57:20;;;;;;;9.35;2.33;;;26.40;95.60;;;;;;5063959;28;20190;-44